Kezdőlap
METAR-TAF:

METAR-TAF

Repülőterek :

Kirkenes, Norvégia

földrajzi szélesség: 69-44N, földrajzi hosszúság: 029-54E, magasság: 9 m

Jelenlegi meteorológiai megfigyelések

A jelentés 38 perccel ezelõtt készült, 03:50 UTC
Különbözõ irányokból fújó szél 1 kt
Hőmérséklet -8°C
Páratartalom 85%
Légköri nyomás 978 hPa
Látótávolság 10 km, vagy több
felhőtlen 1500 m magasságban, és nincs gomolyfelhõ

METAR: ENKR 090350Z VRB01KT CAVOK M08/M10 Q0978 RMK WIND 731FT 32007KT

Idő: 05:28 (04:28 UTC)

Előrejelzés

A jelentés 2 órával és 28 perccel ezelõtt készült, 02:00 UTC
Az előrejelzés 09-én 03 óra UTC és 09-én 12 óra UTC között érvényes
Nyugati szél 5 kt
Látótávolság 10 km, vagy több
Kevés felhő 3000 lábon

TAF: ENKR 090200Z 0903/0912 27005KT 9999 FEW030

Meteorológiai megfigyelések és előrejelzések több, mint 4000 repülőtéren (METAR és TAF jelentéseket).

A térképen piros és sárga pontok jelzik az elérhető meteorológiai állomásokat.

Mozgassa az egeret a pont fölött, hogy megjelenjen az állomás neve.

Azután kattintson az időjárási megfigyelések és előrejelzések megtekintéséhez.

A térkép megváltoztatása: kattintson a fekete keresztel jelölt zöld gombra ráközelítéshez, a vonallal jelölt zöld gombra távolításhoz, vagy a zöld nyilakra a szomszédos térképek eléréséhez.


METAR-TAF: